sensor_id;sensor_type;location;lat;lon;timestamp;P1;durP1;ratioP1;P2;durP2;ratioP2
55720;SDS011;41626;53.098;6.168;2023-05-31T00:00:16;8.10;;;4.90;;
55720;SDS011;41626;53.098;6.168;2023-05-31T00:02:42;9.13;;;5.60;;
55720;SDS011;41626;53.098;6.168;2023-05-31T00:05:08;7.43;;;4.47;;
55720;SDS011;41626;53.098;6.168;2023-05-31T00:07:34;8.50;;;4.80;;
55720;SDS011;41626;53.098;6.168;2023-05-31T00:09:59;10.23;;;4.70;;
55720;SDS011;41626;53.098;6.168;2023-05-31T00:12:25;8.90;;;4.87;;
55720;SDS011;41626;53.098;6.168;2023-05-31T00:14:51;7.87;;;4.87;;
55720;SDS011;41626;53.098;6.168;2023-05-31T00:17:16;11.25;;;5.38;;
55720;SDS011;41626;53.098;6.168;2023-05-31T00:19:42;9.27;;;4.50;;
55720;SDS011;41626;53.098;6.168;2023-05-31T00:22:08;9.50;;;4.93;;
55720;SDS011;41626;53.098;6.168;2023-05-31T00:24:34;7.13;;;4.60;;
55720;SDS011;41626;53.098;6.168;2023-05-31T00:27:00;10.50;;;5.07;;
55720;SDS011;41626;53.098;6.168;2023-05-31T00:29:26;7.50;;;5.47;;
55720;SDS011;41626;53.098;6.168;2023-05-31T00:31:52;7.10;;;4.53;;
55720;SDS011;41626;53.098;6.168;2023-05-31T00:34:18;7.07;;;4.45;;
55720;SDS011;41626;53.098;6.168;2023-05-31T00:36:43;13.80;;;4.80;;
55720;SDS011;41626;53.098;6.168;2023-05-31T00:39:09;9.93;;;4.00;;
55720;SDS011;41626;53.098;6.168;2023-05-31T00:41:35;8.32;;;4.82;;
55720;SDS011;41626;53.098;6.168;2023-05-31T00:44:01;7.38;;;4.53;;
55720;SDS011;41626;53.098;6.168;2023-05-31T00:46:31;7.28;;;5.03;;
55720;SDS011;41626;53.098;6.168;2023-05-31T00:48:58;7.50;;;4.60;;
55720;SDS011;41626;53.098;6.168;2023-05-31T00:51:25;9.23;;;4.88;;
55720;SDS011;41626;53.098;6.168;2023-05-31T00:53:52;8.90;;;5.30;;
55720;SDS011;41626;53.098;6.168;2023-05-31T00:56:18;7.25;;;4.85;;
55720;SDS011;41626;53.098;6.168;2023-05-31T00:58:44;7.63;;;4.72;;
55720;SDS011;41626;53.098;6.168;2023-05-31T01:01:12;9.68;;;4.80;;
55720;SDS011;41626;53.098;6.168;2023-05-31T01:03:38;8.93;;;5.32;;
55720;SDS011;41626;53.098;6.168;2023-05-31T01:06:05;8.95;;;5.00;;
55720;SDS011;41626;53.098;6.168;2023-05-31T01:08:31;9.70;;;5.40;;
55720;SDS011;41626;53.098;6.168;2023-05-31T01:10:57;10.50;;;5.30;;
55720;SDS011;41626;53.098;6.168;2023-05-31T01:14:16;8.75;;;4.97;;
55720;SDS011;41626;53.098;6.168;2023-05-31T01:16:33;9.25;;;4.90;;
55720;SDS011;41626;53.098;6.168;2023-05-31T01:19:04;8.50;;;5.07;;
55720;SDS011;41626;53.098;6.168;2023-05-31T01:22:19;8.18;;;4.70;;
55720;SDS011;41626;53.098;6.168;2023-05-31T01:24:34;8.97;;;5.17;;
55720;SDS011;41626;53.098;6.168;2023-05-31T01:27:24;8.50;;;5.00;;
55720;SDS011;41626;53.098;6.168;2023-05-31T01:29:51;10.18;;;5.55;;
55720;SDS011;41626;53.098;6.168;2023-05-31T01:32:20;8.48;;;4.93;;
55720;SDS011;41626;53.098;6.168;2023-05-31T01:34:48;8.10;;;4.88;;
55720;SDS011;41626;53.098;6.168;2023-05-31T01:37:15;8.65;;;6.00;;
55720;SDS011;41626;53.098;6.168;2023-05-31T01:39:41;8.55;;;5.40;;
55720;SDS011;41626;53.098;6.168;2023-05-31T01:42:08;8.00;;;5.35;;
55720;SDS011;41626;53.098;6.168;2023-05-31T01:44:35;10.27;;;6.57;;
55720;SDS011;41626;53.098;6.168;2023-05-31T01:47:02;8.55;;;5.93;;
55720;SDS011;41626;53.098;6.168;2023-05-31T01:49:28;11.38;;;5.32;;
55720;SDS011;41626;53.098;6.168;2023-05-31T01:51:54;9.80;;;5.47;;
55720;SDS011;41626;53.098;6.168;2023-05-31T01:54:21;9.77;;;5.78;;
55720;SDS011;41626;53.098;6.168;2023-05-31T01:56:47;9.87;;;5.67;;
55720;SDS011;41626;53.098;6.168;2023-05-31T01:59:13;7.57;;;4.93;;
55720;SDS011;41626;53.098;6.168;2023-05-31T02:01:40;10.35;;;5.78;;
55720;SDS011;41626;53.098;6.168;2023-05-31T02:04:06;11.20;;;5.68;;
55720;SDS011;41626;53.098;6.168;2023-05-31T02:06:35;11.30;;;5.80;;
55720;SDS011;41626;53.098;6.168;2023-05-31T02:09:02;11.00;;;5.90;;
55720;SDS011;41626;53.098;6.168;2023-05-31T02:11:29;8.57;;;5.47;;
55720;SDS011;41626;53.098;6.168;2023-05-31T02:13:55;8.50;;;5.60;;
55720;SDS011;41626;53.098;6.168;2023-05-31T02:16:21;10.03;;;6.60;;
55720;SDS011;41626;53.098;6.168;2023-05-31T02:18:46;13.73;;;6.83;;
55720;SDS011;41626;53.098;6.168;2023-05-31T02:21:12;8.60;;;5.40;;
55720;SDS011;41626;53.098;6.168;2023-05-31T02:23:37;10.73;;;6.13;;
55720;SDS011;41626;53.098;6.168;2023-05-31T02:26:03;10.15;;;6.57;;
55720;SDS011;41626;53.098;6.168;2023-05-31T02:28:29;10.02;;;6.50;;
55720;SDS011;41626;53.098;6.168;2023-05-31T02:30:58;10.68;;;5.78;;
55720;SDS011;41626;53.098;6.168;2023-05-31T02:33:25;10.60;;;5.95;;
55720;SDS011;41626;53.098;6.168;2023-05-31T02:35:51;11.90;;;6.35;;
55720;SDS011;41626;53.098;6.168;2023-05-31T02:38:18;10.55;;;6.50;;
55720;SDS011;41626;53.098;6.168;2023-05-31T02:40:45;10.65;;;6.35;;
55720;SDS011;41626;53.098;6.168;2023-05-31T02:43:11;11.85;;;6.13;;
55720;SDS011;41626;53.098;6.168;2023-05-31T02:45:36;13.55;;;7.28;;
55720;SDS011;41626;53.098;6.168;2023-05-31T02:48:02;12.00;;;7.40;;
55720;SDS011;41626;53.098;6.168;2023-05-31T02:50:30;11.98;;;7.15;;
55720;SDS011;41626;53.098;6.168;2023-05-31T02:52:56;9.15;;;6.43;;
55720;SDS011;41626;53.098;6.168;2023-05-31T02:55:22;12.93;;;7.40;;
55720;SDS011;41626;53.098;6.168;2023-05-31T02:57:47;10.23;;;6.97;;
55720;SDS011;41626;53.098;6.168;2023-05-31T03:00:13;13.87;;;7.70;;
55720;SDS011;41626;53.098;6.168;2023-05-31T03:02:40;12.32;;;7.63;;
55720;SDS011;41626;53.098;6.168;2023-05-31T03:05:06;10.68;;;7.00;;
55720;SDS011;41626;53.098;6.168;2023-05-31T03:07:34;11.57;;;7.77;;
55720;SDS011;41626;53.098;6.168;2023-05-31T03:10:02;14.50;;;8.35;;
55720;SDS011;41626;53.098;6.168;2023-05-31T03:12:32;16.33;;;8.15;;
55720;SDS011;41626;53.098;6.168;2023-05-31T03:14:58;13.30;;;8.10;;
55720;SDS011;41626;53.098;6.168;2023-05-31T03:17:24;12.90;;;7.73;;
55720;SDS011;41626;53.098;6.168;2023-05-31T03:19:49;13.20;;;8.33;;
55720;SDS011;41626;53.098;6.168;2023-05-31T03:22:15;12.83;;;8.03;;
55720;SDS011;41626;53.098;6.168;2023-05-31T03:24:41;12.33;;;8.17;;
55720;SDS011;41626;53.098;6.168;2023-05-31T03:27:07;16.93;;;8.83;;
55720;SDS011;41626;53.098;6.168;2023-05-31T03:29:33;12.30;;;9.27;;
55720;SDS011;41626;53.098;6.168;2023-05-31T03:32:01;13.13;;;8.63;;
55720;SDS011;41626;53.098;6.168;2023-05-31T03:34:27;13.73;;;8.00;;
55720;SDS011;41626;53.098;6.168;2023-05-31T03:36:54;11.68;;;8.85;;
55720;SDS011;41626;53.098;6.168;2023-05-31T03:39:19;15.33;;;9.40;;
55720;SDS011;41626;53.098;6.168;2023-05-31T03:41:45;12.03;;;8.23;;
55720;SDS011;41626;53.098;6.168;2023-05-31T03:44:11;10.87;;;8.33;;
55720;SDS011;41626;53.098;6.168;2023-05-31T03:46:36;12.50;;;8.73;;
55720;SDS011;41626;53.098;6.168;2023-05-31T03:49:02;15.27;;;8.80;;
55720;SDS011;41626;53.098;6.168;2023-05-31T03:51:30;14.73;;;8.77;;
55720;SDS011;41626;53.098;6.168;2023-05-31T03:53:56;17.80;;;8.27;;
55720;SDS011;41626;53.098;6.168;2023-05-31T03:56:22;12.53;;;8.27;;
55720;SDS011;41626;53.098;6.168;2023-05-31T03:58:47;18.17;;;7.90;;
55720;SDS011;41626;53.098;6.168;2023-05-31T04:01:13;15.50;;;8.57;;
55720;SDS011;41626;53.098;6.168;2023-05-31T04:03:39;13.67;;;8.37;;
55720;SDS011;41626;53.098;6.168;2023-05-31T04:06:05;14.03;;;9.10;;
55720;SDS011;41626;53.098;6.168;2023-05-31T04:08:30;16.85;;;8.70;;
55720;SDS011;41626;53.098;6.168;2023-05-31T04:10:56;15.17;;;8.33;;
55720;SDS011;41626;53.098;6.168;2023-05-31T04:13:22;14.53;;;8.97;;
55720;SDS011;41626;53.098;6.168;2023-05-31T04:15:47;12.37;;;8.13;;
55720;SDS011;41626;53.098;6.168;2023-05-31T04:18:13;13.52;;;8.23;;
55720;SDS011;41626;53.098;6.168;2023-05-31T04:20:39;13.10;;;8.68;;
55720;SDS011;41626;53.098;6.168;2023-05-31T04:23:05;13.63;;;8.52;;
55720;SDS011;41626;53.098;6.168;2023-05-31T04:25:30;16.58;;;8.85;;
55720;SDS011;41626;53.098;6.168;2023-05-31T04:27:56;15.70;;;8.65;;
55720;SDS011;41626;53.098;6.168;2023-05-31T04:30:22;15.52;;;8.85;;
55720;SDS011;41626;53.098;6.168;2023-05-31T04:32:49;18.45;;;7.70;;
55720;SDS011;41626;53.098;6.168;2023-05-31T04:35:17;14.67;;;8.27;;
55720;SDS011;41626;53.098;6.168;2023-05-31T04:37:43;17.20;;;9.63;;
55720;SDS011;41626;53.098;6.168;2023-05-31T04:40:09;15.32;;;8.60;;
55720;SDS011;41626;53.098;6.168;2023-05-31T04:42:36;13.02;;;7.40;;
55720;SDS011;41626;53.098;6.168;2023-05-31T04:45:02;19.15;;;10.10;;
55720;SDS011;41626;53.098;6.168;2023-05-31T04:47:32;14.70;;;8.93;;
55720;SDS011;41626;53.098;6.168;2023-05-31T04:49:58;13.55;;;8.35;;
55720;SDS011;41626;53.098;6.168;2023-05-31T04:52:25;14.85;;;7.60;;
55720;SDS011;41626;53.098;6.168;2023-05-31T04:54:58;15.30;;;9.32;;
55720;SDS011;41626;53.098;6.168;2023-05-31T04:57:24;13.02;;;8.25;;
55720;SDS011;41626;53.098;6.168;2023-05-31T04:59:53;15.73;;;8.90;;
55720;SDS011;41626;53.098;6.168;2023-05-31T05:02:21;19.90;;;8.98;;
55720;SDS011;41626;53.098;6.168;2023-05-31T05:04:47;17.27;;;8.82;;
55720;SDS011;41626;53.098;6.168;2023-05-31T05:07:13;13.93;;;7.32;;
55720;SDS011;41626;53.098;6.168;2023-05-31T05:09:42;15.95;;;7.85;;
55720;SDS011;41626;53.098;6.168;2023-05-31T05:12:08;17.08;;;8.50;;
55720;SDS011;41626;53.098;6.168;2023-05-31T05:14:34;11.25;;;7.80;;
55720;SDS011;41626;53.098;6.168;2023-05-31T05:17:00;14.75;;;8.23;;
55720;SDS011;41626;53.098;6.168;2023-05-31T05:19:26;15.98;;;7.70;;
55720;SDS011;41626;53.098;6.168;2023-05-31T05:21:51;17.98;;;9.43;;
55720;SDS011;41626;53.098;6.168;2023-05-31T05:24:17;19.10;;;9.35;;
55720;SDS011;41626;53.098;6.168;2023-05-31T05:26:43;14.77;;;8.40;;
55720;SDS011;41626;53.098;6.168;2023-05-31T05:29:09;16.10;;;8.40;;
55720;SDS011;41626;53.098;6.168;2023-05-31T05:31:35;18.07;;;8.10;;
55720;SDS011;41626;53.098;6.168;2023-05-31T05:34:01;19.47;;;8.77;;
55720;SDS011;41626;53.098;6.168;2023-05-31T05:36:27;18.10;;;7.93;;
55720;SDS011;41626;53.098;6.168;2023-05-31T05:38:52;16.53;;;8.40;;
55720;SDS011;41626;53.098;6.168;2023-05-31T05:41:18;16.60;;;8.33;;
55720;SDS011;41626;53.098;6.168;2023-05-31T05:43:44;15.60;;;7.90;;
55720;SDS011;41626;53.098;6.168;2023-05-31T05:46:10;15.77;;;8.70;;
55720;SDS011;41626;53.098;6.168;2023-05-31T05:48:35;15.35;;;8.40;;
55720;SDS011;41626;53.098;6.168;2023-05-31T05:51:01;16.95;;;8.93;;
55720;SDS011;41626;53.098;6.168;2023-05-31T05:53:28;15.05;;;7.82;;
55720;SDS011;41626;53.098;6.168;2023-05-31T05:55:54;18.60;;;8.57;;
55720;SDS011;41626;53.098;6.168;2023-05-31T05:58:20;15.75;;;8.27;;
55720;SDS011;41626;53.098;6.168;2023-05-31T06:00:46;17.08;;;7.97;;
55720;SDS011;41626;53.098;6.168;2023-05-31T06:03:13;20.73;;;8.63;;
55720;SDS011;41626;53.098;6.168;2023-05-31T06:05:43;19.43;;;8.13;;
55720;SDS011;41626;53.098;6.168;2023-05-31T06:08:12;15.98;;;7.45;;
55720;SDS011;41626;53.098;6.168;2023-05-31T06:10:37;14.40;;;7.05;;
55720;SDS011;41626;53.098;6.168;2023-05-31T06:13:05;15.82;;;7.90;;
55720;SDS011;41626;53.098;6.168;2023-05-31T06:15:32;17.02;;;8.57;;
55720;SDS011;41626;53.098;6.168;2023-05-31T06:17:59;13.13;;;7.22;;
55720;SDS011;41626;53.098;6.168;2023-05-31T06:20:25;14.15;;;8.48;;
55720;SDS011;41626;53.098;6.168;2023-05-31T06:22:51;17.33;;;8.07;;
55720;SDS011;41626;53.098;6.168;2023-05-31T06:25:18;15.10;;;8.18;;
55720;SDS011;41626;53.098;6.168;2023-05-31T06:27:44;13.70;;;8.50;;
55720;SDS011;41626;53.098;6.168;2023-05-31T06:30:13;12.90;;;6.95;;
55720;SDS011;41626;53.098;6.168;2023-05-31T06:32:39;14.57;;;7.78;;
55720;SDS011;41626;53.098;6.168;2023-05-31T06:35:04;16.52;;;8.57;;
55720;SDS011;41626;53.098;6.168;2023-05-31T06:37:31;12.63;;;7.47;;
55720;SDS011;41626;53.098;6.168;2023-05-31T06:39:57;12.35;;;7.30;;
55720;SDS011;41626;53.098;6.168;2023-05-31T06:42:22;12.43;;;6.87;;
55720;SDS011;41626;53.098;6.168;2023-05-31T06:44:48;13.43;;;6.72;;
55720;SDS011;41626;53.098;6.168;2023-05-31T06:47:14;10.50;;;7.17;;
55720;SDS011;41626;53.098;6.168;2023-05-31T06:49:40;11.93;;;6.50;;
55720;SDS011;41626;53.098;6.168;2023-05-31T06:52:06;11.30;;;7.10;;
55720;SDS011;41626;53.098;6.168;2023-05-31T06:54:35;13.37;;;5.90;;
55720;SDS011;41626;53.098;6.168;2023-05-31T06:57:04;12.75;;;6.32;;
55720;SDS011;41626;53.098;6.168;2023-05-31T06:59:31;14.80;;;7.10;;
55720;SDS011;41626;53.098;6.168;2023-05-31T07:01:57;13.13;;;6.72;;
55720;SDS011;41626;53.098;6.168;2023-05-31T07:04:22;12.60;;;5.93;;
55720;SDS011;41626;53.098;6.168;2023-05-31T07:06:48;10.65;;;5.55;;
55720;SDS011;41626;53.098;6.168;2023-05-31T07:09:14;11.95;;;6.57;;
55720;SDS011;41626;53.098;6.168;2023-05-31T07:11:40;12.45;;;5.20;;
55720;SDS011;41626;53.098;6.168;2023-05-31T07:14:07;13.75;;;5.50;;
55720;SDS011;41626;53.098;6.168;2023-05-31T07:16:33;8.82;;;4.57;;
55720;SDS011;41626;53.098;6.168;2023-05-31T07:18:58;11.57;;;5.20;;
55720;SDS011;41626;53.098;6.168;2023-05-31T07:21:24;11.40;;;5.13;;
55720;SDS011;41626;53.098;6.168;2023-05-31T07:23:50;9.25;;;5.07;;
55720;SDS011;41626;53.098;6.168;2023-05-31T07:26:17;9.57;;;5.38;;
55720;SDS011;41626;53.098;6.168;2023-05-31T07:28:43;8.33;;;4.00;;
55720;SDS011;41626;53.098;6.168;2023-05-31T07:31:09;10.45;;;4.60;;
55720;SDS011;41626;53.098;6.168;2023-05-31T07:33:35;9.63;;;4.35;;
55720;SDS011;41626;53.098;6.168;2023-05-31T07:36:00;9.83;;;4.47;;
55720;SDS011;41626;53.098;6.168;2023-05-31T07:38:26;6.60;;;3.37;;
55720;SDS011;41626;53.098;6.168;2023-05-31T07:40:52;6.10;;;3.70;;
55720;SDS011;41626;53.098;6.168;2023-05-31T07:43:18;9.13;;;4.63;;
55720;SDS011;41626;53.098;6.168;2023-05-31T07:45:50;8.00;;;4.90;;
55720;SDS011;41626;53.098;6.168;2023-05-31T07:48:16;8.00;;;4.32;;
55720;SDS011;41626;53.098;6.168;2023-05-31T07:50:43;7.40;;;3.37;;
55720;SDS011;41626;53.098;6.168;2023-05-31T07:53:09;10.65;;;3.65;;
55720;SDS011;41626;53.098;6.168;2023-05-31T07:55:35;4.40;;;3.17;;
55720;SDS011;41626;53.098;6.168;2023-05-31T07:58:01;7.97;;;4.13;;
55720;SDS011;41626;53.098;6.168;2023-05-31T08:00:27;6.10;;;3.10;;
55720;SDS011;41626;53.098;6.168;2023-05-31T08:02:52;5.40;;;2.60;;
55720;SDS011;41626;53.098;6.168;2023-05-31T08:05:18;8.15;;;3.35;;
55720;SDS011;41626;53.098;6.168;2023-05-31T08:07:44;7.03;;;3.30;;
55720;SDS011;41626;53.098;6.168;2023-05-31T08:10:10;6.63;;;3.10;;
55720;SDS011;41626;53.098;6.168;2023-05-31T08:12:36;6.50;;;3.85;;
55720;SDS011;41626;53.098;6.168;2023-05-31T08:15:02;5.40;;;3.17;;
55720;SDS011;41626;53.098;6.168;2023-05-31T08:17:28;6.88;;;2.78;;
55720;SDS011;41626;53.098;6.168;2023-05-31T08:19:54;8.80;;;3.13;;
55720;SDS011;41626;53.098;6.168;2023-05-31T08:22:20;5.30;;;2.90;;
55720;SDS011;41626;53.098;6.168;2023-05-31T08:24:46;7.73;;;3.23;;
55720;SDS011;41626;53.098;6.168;2023-05-31T08:27:11;5.38;;;3.20;;
55720;SDS011;41626;53.098;6.168;2023-05-31T08:29:37;8.10;;;3.60;;
55720;SDS011;41626;53.098;6.168;2023-05-31T08:32:03;7.05;;;3.17;;
55720;SDS011;41626;53.098;6.168;2023-05-31T08:34:29;17.50;;;4.50;;
55720;SDS011;41626;53.098;6.168;2023-05-31T08:36:55;11.30;;;3.80;;
55720;SDS011;41626;53.098;6.168;2023-05-31T08:39:20;9.70;;;3.97;;
55720;SDS011;41626;53.098;6.168;2023-05-31T08:41:52;6.40;;;3.75;;
55720;SDS011;41626;53.098;6.168;2023-05-31T08:44:29;6.43;;;3.10;;
55720;SDS011;41626;53.098;6.168;2023-05-31T08:47:34;8.07;;;3.50;;
55720;SDS011;41626;53.098;6.168;2023-05-31T08:49:54;6.10;;;3.10;;
55720;SDS011;41626;53.098;6.168;2023-05-31T08:52:20;8.10;;;3.23;;
55720;SDS011;41626;53.098;6.168;2023-05-31T08:54:47;8.75;;;3.53;;
55720;SDS011;41626;53.098;6.168;2023-05-31T08:57:14;7.82;;;3.17;;
55720;SDS011;41626;53.098;6.168;2023-05-31T08:59:42;11.57;;;4.78;;
55720;SDS011;41626;53.098;6.168;2023-05-31T09:02:09;8.55;;;3.90;;
55720;SDS011;41626;53.098;6.168;2023-05-31T09:04:37;6.47;;;3.17;;
55720;SDS011;41626;53.098;6.168;2023-05-31T09:07:05;8.97;;;3.60;;
55720;SDS011;41626;53.098;6.168;2023-05-31T09:09:31;7.93;;;3.73;;
55720;SDS011;41626;53.098;6.168;2023-05-31T09:11:56;10.90;;;3.83;;
55720;SDS011;41626;53.098;6.168;2023-05-31T09:14:25;10.13;;;4.00;;
55720;SDS011;41626;53.098;6.168;2023-05-31T09:16:51;16.33;;;3.88;;
55720;SDS011;41626;53.098;6.168;2023-05-31T09:19:17;16.83;;;4.50;;
55720;SDS011;41626;53.098;6.168;2023-05-31T09:21:43;14.30;;;3.95;;
55720;SDS011;41626;53.098;6.168;2023-05-31T09:24:10;13.68;;;4.65;;
55720;SDS011;41626;53.098;6.168;2023-05-31T09:26:45;8.03;;;4.33;;
55720;SDS011;41626;53.098;6.168;2023-05-31T09:29:12;15.85;;;4.88;;
55720;SDS011;41626;53.098;6.168;2023-05-31T09:31:38;8.90;;;3.40;;
55720;SDS011;41626;53.098;6.168;2023-05-31T09:34:04;11.93;;;4.25;;
55720;SDS011;41626;53.098;6.168;2023-05-31T09:36:30;15.37;;;3.83;;
55720;SDS011;41626;53.098;6.168;2023-05-31T09:39:00;16.33;;;5.90;;
55720;SDS011;41626;53.098;6.168;2023-05-31T09:41:30;14.10;;;5.18;;
55720;SDS011;41626;53.098;6.168;2023-05-31T09:43:57;14.27;;;5.10;;
55720;SDS011;41626;53.098;6.168;2023-05-31T09:46:23;15.88;;;5.53;;
55720;SDS011;41626;53.098;6.168;2023-05-31T09:48:59;11.50;;;4.83;;
55720;SDS011;41626;53.098;6.168;2023-05-31T09:51:27;14.13;;;5.03;;
55720;SDS011;41626;53.098;6.168;2023-05-31T09:53:53;11.45;;;5.57;;
55720;SDS011;41626;53.098;6.168;2023-05-31T09:56:21;15.57;;;4.90;;
55720;SDS011;41626;53.098;6.168;2023-05-31T09:58:51;10.70;;;4.72;;
55720;SDS011;41626;53.098;6.168;2023-05-31T10:01:17;11.97;;;4.27;;
55720;SDS011;41626;53.098;6.168;2023-05-31T10:03:44;9.38;;;4.07;;
55720;SDS011;41626;53.098;6.168;2023-05-31T10:06:10;13.57;;;5.40;;
55720;SDS011;41626;53.098;6.168;2023-05-31T10:08:37;11.25;;;4.88;;
55720;SDS011;41626;53.098;6.168;2023-05-31T10:11:03;11.87;;;4.50;;
55720;SDS011;41626;53.098;6.168;2023-05-31T10:13:29;12.10;;;5.43;;
55720;SDS011;41626;53.098;6.168;2023-05-31T10:15:56;9.70;;;4.77;;
55720;SDS011;41626;53.098;6.168;2023-05-31T10:18:27;13.00;;;5.72;;
55720;SDS011;41626;53.098;6.168;2023-05-31T10:20:56;8.13;;;4.18;;
55720;SDS011;41626;53.098;6.168;2023-05-31T10:23:35;13.90;;;5.43;;
55720;SDS011;41626;53.098;6.168;2023-05-31T10:26:12;10.27;;;4.63;;
55720;SDS011;41626;53.098;6.168;2023-05-31T10:31:48;9.82;;;4.53;;
55720;SDS011;41626;53.098;6.168;2023-05-31T10:34:19;9.83;;;4.80;;
55720;SDS011;41626;53.098;6.168;2023-05-31T10:36:46;10.85;;;5.07;;
55720;SDS011;41626;53.098;6.168;2023-05-31T10:39:16;9.85;;;4.68;;
55720;SDS011;41626;53.098;6.168;2023-05-31T10:42:32;10.75;;;5.03;;
55720;SDS011;41626;53.098;6.168;2023-05-31T10:50:55;11.02;;;4.93;;
55720;SDS011;41626;53.098;6.168;2023-05-31T10:53:21;12.65;;;5.38;;
55720;SDS011;41626;53.098;6.168;2023-05-31T10:55:47;11.20;;;5.35;;
55720;SDS011;41626;53.098;6.168;2023-05-31T10:58:28;10.52;;;5.00;;
55720;SDS011;41626;53.098;6.168;2023-05-31T11:01:06;10.50;;;5.95;;
55720;SDS011;41626;53.098;6.168;2023-05-31T11:03:46;11.73;;;5.55;;
55720;SDS011;41626;53.098;6.168;2023-05-31T11:06:14;13.75;;;6.05;;
55720;SDS011;41626;53.098;6.168;2023-05-31T11:08:58;10.02;;;4.57;;
55720;SDS011;41626;53.098;6.168;2023-05-31T11:11:26;10.25;;;5.85;;
55720;SDS011;41626;53.098;6.168;2023-05-31T11:13:57;13.45;;;5.90;;
55720;SDS011;41626;53.098;6.168;2023-05-31T11:16:24;12.20;;;6.20;;
55720;SDS011;41626;53.098;6.168;2023-05-31T11:21:54;8.77;;;5.07;;
55720;SDS011;41626;53.098;6.168;2023-05-31T11:27:16;10.93;;;5.65;;
55720;SDS011;41626;53.098;6.168;2023-05-31T11:32:17;10.98;;;5.93;;
55720;SDS011;41626;53.098;6.168;2023-05-31T11:35:18;12.03;;;5.93;;
55720;SDS011;41626;53.098;6.168;2023-05-31T11:37:40;11.52;;;6.07;;
55720;SDS011;41626;53.098;6.168;2023-05-31T11:42:38;9.48;;;5.47;;
55720;SDS011;41626;53.098;6.168;2023-05-31T11:45:09;13.82;;;5.13;;
55720;SDS011;41626;53.098;6.168;2023-05-31T11:50:11;9.60;;;5.78;;
55720;SDS011;41626;53.098;6.168;2023-05-31T11:52:41;11.30;;;5.70;;
55720;SDS011;41626;53.098;6.168;2023-05-31T11:55:07;13.70;;;5.38;;
55720;SDS011;41626;53.098;6.168;2023-05-31T11:57:40;10.33;;;6.23;;
55720;SDS011;41626;53.098;6.168;2023-05-31T12:00:07;14.95;;;6.93;;
55720;SDS011;41626;53.098;6.168;2023-05-31T12:02:40;11.18;;;5.38;;
55720;SDS011;41626;53.098;6.168;2023-05-31T12:05:12;9.17;;;4.77;;
55720;SDS011;41626;53.098;6.168;2023-05-31T12:07:40;12.23;;;5.20;;
55720;SDS011;41626;53.098;6.168;2023-05-31T12:10:06;12.13;;;6.05;;
55720;SDS011;41626;53.098;6.168;2023-05-31T12:12:33;7.93;;;4.60;;
55720;SDS011;41626;53.098;6.168;2023-05-31T12:15:00;8.82;;;4.82;;
55720;SDS011;41626;53.098;6.168;2023-05-31T12:17:30;8.25;;;4.85;;
55720;SDS011;41626;53.098;6.168;2023-05-31T12:19:56;13.00;;;6.18;;
55720;SDS011;41626;53.098;6.168;2023-05-31T12:22:22;8.15;;;4.20;;
55720;SDS011;41626;53.098;6.168;2023-05-31T12:24:49;12.88;;;6.03;;
55720;SDS011;41626;53.098;6.168;2023-05-31T12:27:16;10.65;;;5.78;;
55720;SDS011;41626;53.098;6.168;2023-05-31T12:29:42;12.90;;;5.57;;
55720;SDS011;41626;53.098;6.168;2023-05-31T12:32:08;10.15;;;4.80;;
55720;SDS011;41626;53.098;6.168;2023-05-31T12:34:35;10.05;;;4.63;;
55720;SDS011;41626;53.098;6.168;2023-05-31T12:37:05;12.60;;;5.17;;
55720;SDS011;41626;53.098;6.168;2023-05-31T12:39:32;10.25;;;4.65;;
55720;SDS011;41626;53.098;6.168;2023-05-31T12:42:01;7.97;;;4.50;;
55720;SDS011;41626;53.098;6.168;2023-05-31T12:44:29;8.98;;;4.35;;
55720;SDS011;41626;53.098;6.168;2023-05-31T12:46:59;7.20;;;3.72;;
55720;SDS011;41626;53.098;6.168;2023-05-31T12:49:30;10.27;;;3.87;;
55720;SDS011;41626;53.098;6.168;2023-05-31T12:54:33;9.52;;;3.80;;
55720;SDS011;41626;53.098;6.168;2023-05-31T12:57:00;11.98;;;4.95;;
55720;SDS011;41626;53.098;6.168;2023-05-31T12:59:28;27.63;;;6.22;;
55720;SDS011;41626;53.098;6.168;2023-05-31T13:01:55;14.82;;;4.72;;
55720;SDS011;41626;53.098;6.168;2023-05-31T13:04:21;16.13;;;4.87;;
55720;SDS011;41626;53.098;6.168;2023-05-31T13:06:47;22.75;;;5.10;;
55720;SDS011;41626;53.098;6.168;2023-05-31T13:09:14;8.93;;;4.63;;
55720;SDS011;41626;53.098;6.168;2023-05-31T13:11:41;9.67;;;3.97;;
55720;SDS011;41626;53.098;6.168;2023-05-31T13:14:07;7.80;;;4.20;;
55720;SDS011;41626;53.098;6.168;2023-05-31T13:16:37;9.18;;;3.65;;
55720;SDS011;41626;53.098;6.168;2023-05-31T13:19:03;7.60;;;3.90;;
55720;SDS011;41626;53.098;6.168;2023-05-31T13:21:30;10.73;;;5.30;;
55720;SDS011;41626;53.098;6.168;2023-05-31T13:23:57;11.63;;;4.75;;
55720;SDS011;41626;53.098;6.168;2023-05-31T13:26:23;9.10;;;5.70;;
55720;SDS011;41626;53.098;6.168;2023-05-31T13:28:52;11.32;;;6.50;;
55720;SDS011;41626;53.098;6.168;2023-05-31T13:31:25;10.52;;;5.28;;
55720;SDS011;41626;53.098;6.168;2023-05-31T13:33:51;11.43;;;5.78;;
55720;SDS011;41626;53.098;6.168;2023-05-31T13:36:18;10.30;;;6.15;;
55720;SDS011;41626;53.098;6.168;2023-05-31T13:38:45;8.60;;;5.03;;
55720;SDS011;41626;53.098;6.168;2023-05-31T13:41:12;9.32;;;4.72;;
55720;SDS011;41626;53.098;6.168;2023-05-31T13:43:37;10.20;;;4.60;;
55720;SDS011;41626;53.098;6.168;2023-05-31T13:46:03;11.98;;;4.72;;
55720;SDS011;41626;53.098;6.168;2023-05-31T13:48:34;9.63;;;3.42;;
55720;SDS011;41626;53.098;6.168;2023-05-31T13:51:03;7.65;;;3.53;;
55720;SDS011;41626;53.098;6.168;2023-05-31T13:53:30;11.45;;;4.30;;
55720;SDS011;41626;53.098;6.168;2023-05-31T13:55:56;6.90;;;3.47;;
55720;SDS011;41626;53.098;6.168;2023-05-31T13:58:22;10.68;;;4.05;;
55720;SDS011;41626;53.098;6.168;2023-05-31T14:00:48;10.00;;;3.92;;
55720;SDS011;41626;53.098;6.168;2023-05-31T14:03:15;10.10;;;4.32;;
55720;SDS011;41626;53.098;6.168;2023-05-31T14:05:41;11.68;;;4.07;;
55720;SDS011;41626;53.098;6.168;2023-05-31T14:08:08;8.00;;;3.47;;
55720;SDS011;41626;53.098;6.168;2023-05-31T14:10:35;6.35;;;3.03;;
55720;SDS011;41626;53.098;6.168;2023-05-31T14:13:00;12.82;;;4.47;;
55720;SDS011;41626;53.098;6.168;2023-05-31T14:15:26;7.47;;;3.80;;
55720;SDS011;41626;53.098;6.168;2023-05-31T14:17:52;13.03;;;4.73;;
55720;SDS011;41626;53.098;6.168;2023-05-31T14:20:18;7.03;;;3.50;;
55720;SDS011;41626;53.098;6.168;2023-05-31T14:22:43;8.15;;;3.30;;
55720;SDS011;41626;53.098;6.168;2023-05-31T14:25:10;7.95;;;3.67;;
55720;SDS011;41626;53.098;6.168;2023-05-31T14:27:35;7.55;;;3.67;;
55720;SDS011;41626;53.098;6.168;2023-05-31T14:30:01;7.30;;;3.85;;
55720;SDS011;41626;53.098;6.168;2023-05-31T14:32:27;10.15;;;3.95;;
55720;SDS011;41626;53.098;6.168;2023-05-31T14:34:55;5.28;;;3.20;;
55720;SDS011;41626;53.098;6.168;2023-05-31T14:37:21;11.43;;;4.00;;
55720;SDS011;41626;53.098;6.168;2023-05-31T14:39:46;8.97;;;4.17;;
55720;SDS011;41626;53.098;6.168;2023-05-31T14:42:12;5.75;;;3.70;;
55720;SDS011;41626;53.098;6.168;2023-05-31T14:44:38;9.75;;;3.83;;
55720;SDS011;41626;53.098;6.168;2023-05-31T14:47:03;9.13;;;3.73;;
55720;SDS011;41626;53.098;6.168;2023-05-31T14:49:30;11.68;;;4.40;;
55720;SDS011;41626;53.098;6.168;2023-05-31T14:51:55;9.48;;;3.85;;
55720;SDS011;41626;53.098;6.168;2023-05-31T14:54:22;7.60;;;4.15;;
55720;SDS011;41626;53.098;6.168;2023-05-31T14:56:48;13.48;;;4.10;;
55720;SDS011;41626;53.098;6.168;2023-05-31T14:59:14;8.10;;;3.33;;
55720;SDS011;41626;53.098;6.168;2023-05-31T15:01:40;12.57;;;4.55;;
55720;SDS011;41626;53.098;6.168;2023-05-31T15:04:13;8.25;;;4.20;;